createdAt,value
2022-11-09T00:00:04.177Z,8.5
2022-11-09T00:01:04.183Z,8.5
2022-11-09T00:02:04.158Z,8.5
2022-11-09T00:03:04.148Z,8.5
2022-11-09T00:04:04.152Z,8.4
2022-11-09T00:05:04.156Z,8.4
2022-11-09T00:06:04.170Z,8.4
2022-11-09T00:07:04.229Z,8.4
2022-11-09T00:08:04.167Z,8.4
2022-11-09T00:09:07.326Z,8.5
2022-11-09T00:10:04.196Z,8.5
2022-11-09T00:11:04.194Z,8.6
2022-11-09T00:12:04.173Z,8.6
2022-11-09T00:13:04.186Z,8.7
2022-11-09T00:14:04.201Z,8.8
2022-11-09T00:15:04.194Z,8.8
2022-11-09T00:16:04.199Z,8.9
2022-11-09T00:17:04.187Z,9
2022-11-09T00:18:04.211Z,9
2022-11-09T00:19:04.209Z,9
2022-11-09T00:20:04.236Z,9
2022-11-09T00:21:04.229Z,9
2022-11-09T00:22:04.226Z,8.9
2022-11-09T00:23:04.245Z,8.9
2022-11-09T00:24:04.215Z,8.8
2022-11-09T00:25:04.226Z,8.7
2022-11-09T00:26:04.244Z,8.7
2022-11-09T00:27:04.265Z,8.7
2022-11-09T00:28:04.208Z,8.6
2022-11-09T00:29:04.213Z,8.6
2022-11-09T00:30:04.220Z,8.6
2022-11-09T00:31:04.265Z,8.6
2022-11-09T00:32:04.262Z,8.6
2022-11-09T00:33:04.238Z,8.6
2022-11-09T00:34:04.243Z,8.6
2022-11-09T00:35:04.239Z,8.5
2022-11-09T00:36:04.283Z,8.5
2022-11-09T00:37:04.254Z,8.5
2022-11-09T00:38:04.293Z,8.5
2022-11-09T00:39:04.275Z,8.5
2022-11-09T00:40:04.239Z,8.4
2022-11-09T00:41:04.275Z,8.4
2022-11-09T00:42:04.252Z,8.3
2022-11-09T00:43:04.254Z,8.3
2022-11-09T00:44:04.241Z,8.3
2022-11-09T00:45:04.283Z,8.3
2022-11-09T00:46:04.298Z,8.3
2022-11-09T00:47:04.298Z,8.3
2022-11-09T00:48:04.310Z,8.3
2022-11-09T00:49:04.282Z,8.3
2022-11-09T00:50:04.274Z,8.3
2022-11-09T00:51:04.295Z,8.3
2022-11-09T00:52:04.297Z,8.3
2022-11-09T00:53:04.272Z,8.3
2022-11-09T00:54:04.304Z,8.3
2022-11-09T00:55:04.320Z,8.4
2022-11-09T00:56:04.283Z,8.4
2022-11-09T00:57:04.287Z,8.4
2022-11-09T00:58:04.275Z,8.4
2022-11-09T00:59:04.287Z,8.5
2022-11-09T01:00:04.280Z,8.5
2022-11-09T01:01:04.334Z,8.5
2022-11-09T01:02:04.293Z,8.5
2022-11-09T01:03:04.305Z,8.6
2022-11-09T01:04:04.289Z,8.6
2022-11-09T01:05:04.341Z,8.6
2022-11-09T01:06:04.370Z,8.7
2022-11-09T01:07:04.357Z,8.7
2022-11-09T01:08:04.324Z,8.7
2022-11-09T01:09:04.338Z,8.7
2022-11-09T01:10:04.359Z,8.8
2022-11-09T01:11:04.363Z,8.8
2022-11-09T01:12:04.333Z,8.8
2022-11-09T01:13:04.349Z,8.8
2022-11-09T01:14:04.335Z,8.8
2022-11-09T01:15:04.337Z,8.8
2022-11-09T01:16:04.343Z,8.8
2022-11-09T01:17:04.377Z,8.8
2022-11-09T01:18:04.332Z,8.8
2022-11-09T01:19:04.342Z,8.8
2022-11-09T01:20:04.355Z,8.8
2022-11-09T01:21:04.376Z,8.7
2022-11-09T01:22:04.369Z,8.7
2022-11-09T01:23:04.360Z,8.7
2022-11-09T01:24:04.362Z,8.7
2022-11-09T01:25:04.438Z,8.7
2022-11-09T01:26:04.431Z,8.7
2022-11-09T01:27:04.433Z,8.7
2022-11-09T01:28:04.435Z,8.7
2022-11-09T01:29:04.407Z,8.7
2022-11-09T01:30:04.415Z,8.7
2022-11-09T01:31:04.428Z,8.7
2022-11-09T01:32:04.416Z,8.7
2022-11-09T01:33:04.439Z,8.7
2022-11-09T01:34:04.431Z,8.7
2022-11-09T01:35:04.419Z,8.7
2022-11-09T01:36:04.459Z,8.7
2022-11-09T01:37:04.414Z,8.7
2022-11-09T01:38:04.412Z,8.7
2022-11-09T01:39:04.406Z,8.8
2022-11-09T01:40:04.415Z,8.8
2022-11-09T01:41:04.611Z,8.8
2022-11-09T01:42:04.425Z,8.8
2022-11-09T01:43:04.438Z,8.8
2022-11-09T01:44:04.418Z,8.8
2022-11-09T01:45:04.446Z,8.8
2022-11-09T01:46:04.424Z,8.9
2022-11-09T01:47:04.414Z,8.9
2022-11-09T01:48:04.437Z,8.9
2022-11-09T01:49:04.433Z,8.9
2022-11-09T01:50:04.423Z,8.9
2022-11-09T01:51:04.421Z,8.9
2022-11-09T01:52:04.420Z,9
2022-11-09T01:53:04.425Z,9
2022-11-09T01:54:04.453Z,9
2022-11-09T01:55:04.437Z,9
2022-11-09T01:56:04.449Z,9
2022-11-09T01:57:04.427Z,9
2022-11-09T01:58:04.430Z,9.1
2022-11-09T01:59:04.448Z,9.1
2022-11-09T02:00:04.449Z,9.1
2022-11-09T02:01:04.472Z,9.2
2022-11-09T02:02:04.443Z,9.3
2022-11-09T02:03:04.444Z,9.3
2022-11-09T02:04:04.446Z,9.4
2022-11-09T02:05:04.437Z,9.5
2022-11-09T02:06:04.463Z,9.6
2022-11-09T02:07:04.509Z,9.7
2022-11-09T02:08:04.478Z,9.8
2022-11-09T02:09:04.464Z,9.8
2022-11-09T02:10:04.470Z,9.9
2022-11-09T02:11:04.480Z,9.9
2022-11-09T02:12:04.460Z,9.9
2022-11-09T02:13:04.464Z,9.9
2022-11-09T02:14:04.473Z,9.9
2022-11-09T02:15:04.492Z,9.9
2022-11-09T02:16:04.507Z,9.9
2022-11-09T02:17:04.503Z,9.9
2022-11-09T02:18:04.488Z,9.9
2022-11-09T02:19:04.492Z,9.9
2022-11-09T02:20:04.475Z,10
2022-11-09T02:21:04.486Z,10
2022-11-09T02:22:04.486Z,10.1
2022-11-09T02:23:04.503Z,10.1
2022-11-09T02:24:04.491Z,10.2
2022-11-09T02:25:04.526Z,10.2
2022-11-09T02:26:04.513Z,10.2
2022-11-09T02:27:04.488Z,10.2
2022-11-09T02:28:04.533Z,10.2
2022-11-09T02:29:04.523Z,10.1
2022-11-09T02:30:04.510Z,10.1
2022-11-09T02:31:04.551Z,10
2022-11-09T02:32:04.526Z,9.9
2022-11-09T02:33:04.537Z,9.8
2022-11-09T02:34:04.525Z,9.7
2022-11-09T02:35:04.527Z,9.7
2022-11-09T02:36:04.612Z,9.6
2022-11-09T02:37:04.549Z,9.6
2022-11-09T02:38:04.555Z,9.5
2022-11-09T02:39:04.552Z,9.5
2022-11-09T02:40:04.551Z,9.5
2022-11-09T02:41:04.561Z,9.5
2022-11-09T02:42:07.893Z,9.5
2022-11-09T02:43:04.564Z,9.5
2022-11-09T02:44:04.567Z,9.5
2022-11-09T02:45:04.582Z,9.5
2022-11-09T02:46:04.578Z,9.5
2022-11-09T02:47:04.691Z,9.5
2022-11-09T02:48:04.563Z,9.6
2022-11-09T02:49:04.594Z,9.6
2022-11-09T02:50:04.587Z,9.6
2022-11-09T02:51:04.581Z,9.6
2022-11-09T02:52:04.598Z,9.7
2022-11-09T02:53:04.593Z,9.7
2022-11-09T02:54:04.604Z,9.7
2022-11-09T02:55:04.599Z,9.7
2022-11-09T02:56:04.625Z,9.7
2022-11-09T02:57:04.635Z,9.7
2022-11-09T02:58:04.610Z,9.7
2022-11-09T02:59:04.616Z,9.6
2022-11-09T03:00:04.638Z,9.6
2022-11-09T03:01:04.670Z,9.6
2022-11-09T03:02:04.625Z,9.5
2022-11-09T03:03:04.670Z,9.5
2022-11-09T03:04:04.627Z,9.4
2022-11-09T03:05:04.828Z,9.4
2022-11-09T03:06:04.669Z,9.4
2022-11-09T03:07:04.698Z,9.4
2022-11-09T03:08:04.656Z,9.3
2022-11-09T03:09:04.649Z,9.3
2022-11-09T03:10:04.665Z,9.3
2022-11-09T03:11:04.657Z,9.3
2022-11-09T03:12:04.652Z,9.3
2022-11-09T03:13:04.647Z,9.3
2022-11-09T03:14:04.654Z,9.4
2022-11-09T03:15:04.690Z,9.4
2022-11-09T03:16:04.671Z,9.4
2022-11-09T03:17:04.687Z,9.4
2022-11-09T03:18:04.664Z,9.5
2022-11-09T03:19:04.753Z,9.5
2022-11-09T03:20:04.673Z,9.5
2022-11-09T03:21:04.687Z,9.5
2022-11-09T03:22:04.683Z,9.5
2022-11-09T03:23:04.683Z,9.5
2022-11-09T03:24:04.669Z,9.5
2022-11-09T03:25:04.670Z,9.5
2022-11-09T03:26:04.682Z,9.5
2022-11-09T03:27:04.686Z,9.5
2022-11-09T03:28:04.678Z,9.5
2022-11-09T03:29:04.682Z,9.4
2022-11-09T03:30:04.693Z,9.4
2022-11-09T03:31:04.717Z,9.4
2022-11-09T03:32:04.708Z,9.4
2022-11-09T03:33:04.705Z,9.3
2022-11-09T03:34:04.705Z,9.3
2022-11-09T03:35:04.743Z,9.3
2022-11-09T03:36:04.722Z,9.3
2022-11-09T03:37:04.715Z,9.3
2022-11-09T03:38:04.827Z,9.3
2022-11-09T03:39:04.919Z,9.3
2022-11-09T03:40:04.718Z,9.3
2022-11-09T03:41:04.730Z,9.3
2022-11-09T03:42:04.734Z,9.3
2022-11-09T03:43:04.742Z,9.3
2022-11-09T03:44:04.746Z,9.3
2022-11-09T03:45:04.753Z,9.3
2022-11-09T03:46:04.773Z,9.4
2022-11-09T03:47:04.733Z,9.4
2022-11-09T03:48:04.751Z,9.4
2022-11-09T03:49:04.741Z,9.4
2022-11-09T03:50:04.752Z,9.4
2022-11-09T03:51:04.869Z,9.4
2022-11-09T03:52:04.766Z,9.5
2022-11-09T03:53:04.743Z,9.5
2022-11-09T03:54:04.770Z,9.5
2022-11-09T03:55:04.740Z,9.5
2022-11-09T03:56:04.754Z,9.5
2022-11-09T03:57:04.888Z,9.5
2022-11-09T03:58:04.772Z,9.5
2022-11-09T03:59:04.774Z,9.5
2022-11-09T04:00:04.765Z,9.5
2022-11-09T04:01:04.786Z,9.5
2022-11-09T04:02:04.796Z,9.5
2022-11-09T04:03:04.771Z,9.6
2022-11-09T04:04:04.787Z,9.6
2022-11-09T04:05:04.789Z,9.5
2022-11-09T04:06:04.821Z,9.5
2022-11-09T04:07:04.880Z,9.5
2022-11-09T04:08:04.797Z,9.5
2022-11-09T04:09:04.816Z,9.5
2022-11-09T04:10:04.817Z,9.5
2022-11-09T04:11:04.807Z,9.5
2022-11-09T04:12:04.811Z,9.5
2022-11-09T04:13:04.806Z,9.5
2022-11-09T04:14:04.807Z,9.4
2022-11-09T04:15:04.824Z,9.4
2022-11-09T04:16:04.829Z,9.4
2022-11-09T04:17:04.859Z,9.4
2022-11-09T04:18:04.826Z,9.4
2022-11-09T04:19:04.937Z,9.4
2022-11-09T04:20:04.857Z,9.4
2022-11-09T04:21:04.850Z,9.4
2022-11-09T04:22:04.830Z,9.4
2022-11-09T04:23:04.849Z,9.4
2022-11-09T04:24:04.819Z,9.5
2022-11-09T04:25:04.836Z,9.5
2022-11-09T04:26:04.842Z,9.6
2022-11-09T04:27:04.844Z,9.7
2022-11-09T04:28:04.831Z,9.8
2022-11-09T04:29:04.848Z,9.8
2022-11-09T04:30:04.838Z,9.9
2022-11-09T04:31:04.866Z,10
2022-11-09T04:32:04.873Z,10
2022-11-09T04:33:04.867Z,10.1
2022-11-09T04:34:04.876Z,10.1
2022-11-09T04:35:04.876Z,10.1
2022-11-09T04:36:04.850Z,10.1
2022-11-09T04:37:04.854Z,10.1
2022-11-09T04:38:04.863Z,10
2022-11-09T04:39:04.875Z,10
2022-11-09T04:40:04.859Z,10
2022-11-09T04:41:04.871Z,10
2022-11-09T04:42:04.861Z,10
2022-11-09T04:43:04.880Z,10
2022-11-09T04:44:04.869Z,10
2022-11-09T04:45:04.886Z,10
2022-11-09T04:46:04.895Z,10
2022-11-09T04:47:04.969Z,10
2022-11-09T04:48:04.906Z,10.1
2022-11-09T04:49:04.923Z,10.1
2022-11-09T04:50:04.880Z,10.1
2022-11-09T04:51:04.901Z,10.1
2022-11-09T04:52:04.880Z,10.2
2022-11-09T04:53:07.697Z,10.2
2022-11-09T04:54:04.900Z,10.2
2022-11-09T04:55:04.918Z,10.2
2022-11-09T04:56:04.884Z,10.2
2022-11-09T04:57:04.896Z,10.2
2022-11-09T04:58:04.946Z,10.3
2022-11-09T04:59:04.928Z,10.3
2022-11-09T05:00:04.953Z,10.3
2022-11-09T05:01:04.923Z,10.3
2022-11-09T05:02:04.926Z,10.3
2022-11-09T05:03:04.930Z,10.3
2022-11-09T05:04:04.977Z,10.2
2022-11-09T05:05:04.946Z,10.2
2022-11-09T05:06:04.933Z,10.2
2022-11-09T05:07:05.007Z,10.2
2022-11-09T05:08:04.933Z,10.1
2022-11-09T05:09:04.923Z,10.1
2022-11-09T05:10:04.963Z,10
2022-11-09T05:11:04.951Z,10
2022-11-09T05:12:04.940Z,9.9
2022-11-09T05:13:04.944Z,9.9
2022-11-09T05:14:04.924Z,9.9
2022-11-09T05:15:04.948Z,9.8
2022-11-09T05:16:04.941Z,9.8
2022-11-09T05:17:04.931Z,9.8
2022-11-09T05:18:04.941Z,9.8
2022-11-09T05:19:04.978Z,9.8
2022-11-09T05:20:04.953Z,9.8
2022-11-09T05:21:04.945Z,9.8
2022-11-09T05:22:04.959Z,9.8
2022-11-09T05:23:05.032Z,9.8
2022-11-09T05:24:05.016Z,9.8
2022-11-09T05:25:05.026Z,9.9
2022-11-09T05:26:05.000Z,9.9
2022-11-09T05:27:05.112Z,9.9
2022-11-09T05:28:05.007Z,9.9
2022-11-09T05:29:05.006Z,9.9
2022-11-09T05:30:05.008Z,9.9
2022-11-09T05:31:04.999Z,10
2022-11-09T05:32:04.994Z,10
2022-11-09T05:33:04.993Z,10
2022-11-09T05:34:05.000Z,10
2022-11-09T05:35:05.029Z,10
2022-11-09T05:36:05.016Z,10.1
2022-11-09T05:37:04.999Z,10.1
2022-11-09T05:38:05.028Z,10.1
2022-11-09T05:39:05.029Z,10.1
2022-11-09T05:40:05.057Z,10.1
2022-11-09T05:41:05.038Z,10.1
2022-11-09T05:42:05.019Z,10.1
2022-11-09T05:43:05.076Z,10.1
2022-11-09T05:44:05.049Z,10.2
2022-11-09T05:45:28.264Z,10.2
2022-11-09T05:46:06.670Z,10.2
2022-11-09T05:47:05.029Z,10.2
2022-11-09T05:48:05.031Z,10.2
2022-11-09T05:49:05.043Z,10.2
2022-11-09T05:50:05.035Z,10.2
2022-11-09T05:51:05.111Z,10.2
2022-11-09T05:52:05.102Z,10.2
2022-11-09T05:53:05.122Z,10.2
2022-11-09T05:54:05.136Z,10.2
2022-11-09T05:55:05.178Z,10.2
2022-11-09T05:56:05.167Z,10.2
2022-11-09T05:57:05.148Z,10.2
2022-11-09T05:58:05.150Z,10.2
2022-11-09T05:59:05.178Z,10.2
2022-11-09T06:00:08.586Z,10.3
2022-11-09T06:01:05.133Z,10.3
2022-11-09T06:02:05.192Z,10.3
2022-11-09T06:03:05.153Z,10.3
2022-11-09T06:04:05.140Z,10.3
2022-11-09T06:05:05.159Z,10.4
2022-11-09T06:06:08.265Z,10.4
2022-11-09T06:07:05.222Z,10.4
2022-11-09T06:08:05.189Z,10.4
2022-11-09T06:09:05.142Z,10.4
2022-11-09T06:10:05.155Z,10.4
2022-11-09T06:11:05.141Z,10.4
2022-11-09T06:12:05.142Z,10.4
2022-11-09T06:13:05.151Z,10.4
2022-11-09T06:14:05.162Z,10.4
2022-11-09T06:15:05.185Z,10.4
2022-11-09T06:16:05.163Z,10.4
2022-11-09T06:17:05.144Z,10.4
2022-11-09T06:18:05.158Z,10.4
2022-11-09T06:19:05.219Z,10.3
2022-11-09T06:20:05.259Z,10.3
2022-11-09T06:21:05.195Z,10.3
2022-11-09T06:22:05.178Z,10.3
2022-11-09T06:23:05.189Z,10.3
2022-11-09T06:24:05.171Z,10.4
2022-11-09T06:25:05.190Z,10.4
2022-11-09T06:26:05.177Z,10.4
2022-11-09T06:27:05.201Z,10.4
2022-11-09T06:28:05.213Z,10.5
2022-11-09T06:29:05.192Z,10.5
2022-11-09T06:30:05.230Z,10.6
2022-11-09T06:31:05.199Z,10.6
2022-11-09T06:32:05.211Z,10.7
2022-11-09T06:33:05.180Z,10.7
2022-11-09T06:34:05.204Z,10.7
2022-11-09T06:35:05.211Z,10.7
2022-11-09T06:36:05.201Z,10.7
2022-11-09T06:37:05.225Z,10.8
2022-11-09T06:38:05.201Z,10.8
2022-11-09T06:39:05.197Z,10.8
2022-11-09T06:40:05.230Z,10.8
2022-11-09T06:41:05.203Z,10.8
2022-11-09T06:42:05.233Z,10.8
2022-11-09T06:43:05.202Z,10.8
2022-11-09T06:44:05.208Z,10.8
2022-11-09T06:45:05.226Z,10.7
2022-11-09T06:46:05.191Z,10.7
2022-11-09T06:47:05.230Z,10.7
2022-11-09T06:48:05.227Z,10.7
2022-11-09T06:49:05.210Z,10.7
2022-11-09T06:50:05.234Z,10.7
2022-11-09T06:51:05.205Z,10.7
2022-11-09T06:52:05.215Z,10.7
2022-11-09T06:53:05.211Z,10.7
2022-11-09T06:54:05.197Z,10.7
2022-11-09T06:55:05.235Z,10.7
2022-11-09T06:56:05.218Z,10.7
2022-11-09T06:57:05.218Z,10.7
2022-11-09T06:58:05.198Z,10.7
2022-11-09T06:59:05.212Z,10.7
2022-11-09T07:00:05.232Z,10.7
2022-11-09T07:01:05.314Z,10.7
2022-11-09T07:02:05.216Z,10.7
2022-11-09T07:03:05.263Z,10.7
2022-11-09T07:04:05.232Z,10.7
2022-11-09T07:05:05.243Z,10.7
2022-11-09T07:06:05.238Z,10.7
2022-11-09T07:07:05.282Z,10.7
2022-11-09T07:08:05.223Z,10.7
2022-11-09T07:09:05.223Z,10.7
2022-11-09T07:10:05.244Z,10.7
2022-11-09T07:11:05.258Z,10.7
2022-11-09T07:12:05.273Z,10.7
2022-11-09T07:13:05.267Z,10.7
2022-11-09T07:14:05.270Z,10.7
2022-11-09T07:15:05.267Z,10.7
2022-11-09T07:16:05.261Z,10.7
2022-11-09T07:17:05.278Z,10.7
2022-11-09T07:18:05.264Z,10.7
2022-11-09T07:19:05.282Z,10.7
2022-11-09T07:20:05.287Z,10.7
2022-11-09T07:21:07.719Z,10.7
2022-11-09T07:22:05.267Z,10.7
2022-11-09T07:23:05.288Z,10.7
2022-11-09T07:24:05.262Z,10.7
2022-11-09T07:25:05.596Z,10.7
2022-11-09T07:26:05.277Z,10.7
2022-11-09T07:27:05.280Z,10.8
2022-11-09T07:28:05.441Z,10.8
2022-11-09T07:29:05.293Z,10.8
2022-11-09T07:30:05.302Z,10.8
2022-11-09T07:31:05.324Z,10.8
2022-11-09T07:32:05.332Z,10.9
2022-11-09T07:33:09.873Z,10.9
2022-11-09T07:34:05.321Z,10.9
2022-11-09T07:35:05.384Z,11
2022-11-09T07:36:05.346Z,11
2022-11-09T07:37:05.370Z,11
2022-11-09T07:38:05.336Z,11
2022-11-09T07:39:05.337Z,11.1
2022-11-09T07:40:05.363Z,11.1
2022-11-09T07:41:05.325Z,11.1
2022-11-09T07:42:05.411Z,11.1
2022-11-09T07:43:05.359Z,11.1
2022-11-09T07:44:05.347Z,11.1
2022-11-09T07:45:05.379Z,11.2
2022-11-09T07:46:05.359Z,11.2
2022-11-09T07:47:05.362Z,11.2
2022-11-09T07:48:05.351Z,11.2
2022-11-09T07:49:05.380Z,11.2
2022-11-09T07:50:05.414Z,11.3
2022-11-09T07:51:05.417Z,11.3
2022-11-09T07:52:05.370Z,11.3
2022-11-09T07:53:05.388Z,11.3
2022-11-09T07:54:05.390Z,11.3
2022-11-09T07:55:05.382Z,11.3
2022-11-09T07:56:05.383Z,11.3
2022-11-09T07:57:05.381Z,11.3
2022-11-09T07:58:05.361Z,11.4
2022-11-09T07:59:05.412Z,11.4
2022-11-09T08:00:05.430Z,11.4
2022-11-09T08:01:05.392Z,11.4
2022-11-09T08:02:05.404Z,11.4
2022-11-09T08:03:05.408Z,11.4
2022-11-09T08:04:05.385Z,11.4
2022-11-09T08:05:05.412Z,11.4
2022-11-09T08:06:05.420Z,11.4
2022-11-09T08:07:05.493Z,11.5
2022-11-09T08:08:05.379Z,11.5
2022-11-09T08:09:05.435Z,11.5
2022-11-09T08:10:05.396Z,11.5
2022-11-09T08:11:05.380Z,11.5
2022-11-09T08:12:05.437Z,11.5
2022-11-09T08:13:05.416Z,11.5
2022-11-09T08:14:05.409Z,11.5
2022-11-09T08:15:05.428Z,11.6
2022-11-09T08:16:05.397Z,11.6
2022-11-09T08:17:05.393Z,11.6
2022-11-09T08:18:05.402Z,11.6
2022-11-09T08:19:05.419Z,11.6
2022-11-09T08:20:05.427Z,11.6
2022-11-09T08:21:05.428Z,11.6
2022-11-09T08:22:05.431Z,11.7
2022-11-09T08:23:05.474Z,11.7
2022-11-09T08:24:05.509Z,11.7
2022-11-09T08:25:05.435Z,11.7
2022-11-09T08:26:05.426Z,11.7
2022-11-09T08:27:05.448Z,11.7
2022-11-09T08:28:07.421Z,11.7
2022-11-09T08:29:05.444Z,11.7
2022-11-09T08:30:05.444Z,11.7
2022-11-09T08:31:05.468Z,11.7
2022-11-09T08:32:05.433Z,11.7
2022-11-09T08:33:05.425Z,11.7
2022-11-09T08:34:05.435Z,11.7
2022-11-09T08:35:05.484Z,11.7
2022-11-09T08:36:05.486Z,11.8
2022-11-09T08:37:05.498Z,11.8
2022-11-09T08:38:05.456Z,11.8
2022-11-09T08:39:05.494Z,11.8
2022-11-09T08:40:05.468Z,11.8
2022-11-09T08:41:08.147Z,11.8
2022-11-09T08:42:05.464Z,11.9
2022-11-09T08:43:05.474Z,11.9
2022-11-09T08:44:05.453Z,11.9
2022-11-09T08:45:05.509Z,11.9
2022-11-09T08:46:05.467Z,11.9
2022-11-09T08:47:05.476Z,12
2022-11-09T08:48:05.500Z,12
2022-11-09T08:49:05.684Z,12
2022-11-09T08:50:05.486Z,12
2022-11-09T08:51:05.485Z,12
2022-11-09T08:52:05.481Z,12
2022-11-09T08:53:05.479Z,12
2022-11-09T08:54:05.482Z,12
2022-11-09T08:55:05.516Z,12.1
2022-11-09T08:56:05.486Z,12.1
2022-11-09T08:57:05.494Z,12.1
2022-11-09T08:58:05.510Z,12.1
2022-11-09T08:59:05.527Z,12.1
2022-11-09T09:00:05.509Z,12.1
2022-11-09T09:01:05.528Z,12.1
2022-11-09T09:02:05.534Z,12.1
2022-11-09T09:03:05.543Z,12.1
2022-11-09T09:04:05.504Z,12.2
2022-11-09T09:05:05.522Z,12.2
2022-11-09T09:06:05.507Z,12.2
2022-11-09T09:07:05.612Z,12.2
2022-11-09T09:08:05.510Z,12.2
2022-11-09T09:09:05.515Z,12.2
2022-11-09T09:10:05.561Z,12.2
2022-11-09T09:11:05.591Z,12.2
2022-11-09T09:12:05.549Z,12.2
2022-11-09T09:13:05.558Z,12.2
2022-11-09T09:14:05.553Z,12.2
2022-11-09T09:15:05.567Z,12.3
2022-11-09T09:16:05.559Z,12.3
2022-11-09T09:17:05.560Z,12.3
2022-11-09T09:18:05.567Z,12.3
2022-11-09T09:19:05.567Z,12.3
2022-11-09T09:20:05.569Z,12.3
2022-11-09T09:21:05.551Z,12.3
2022-11-09T09:22:05.570Z,12.3
2022-11-09T09:23:05.592Z,12.3
2022-11-09T09:24:05.578Z,12.3
2022-11-09T09:25:05.620Z,12.3
2022-11-09T09:26:05.602Z,12.3
2022-11-09T09:27:05.601Z,12.3
2022-11-09T09:28:05.571Z,12.4
2022-11-09T09:29:05.591Z,12.4
2022-11-09T09:30:05.609Z,12.4
2022-11-09T09:31:05.587Z,12.4
2022-11-09T09:32:05.592Z,12.4
2022-11-09T09:33:05.591Z,12.4
2022-11-09T09:34:05.586Z,12.4
2022-11-09T09:35:05.595Z,12.4
2022-11-09T09:36:05.614Z,12.5
2022-11-09T09:37:05.594Z,12.5
2022-11-09T09:38:05.589Z,12.5
2022-11-09T09:39:05.596Z,12.5
2022-11-09T09:40:05.586Z,12.5
2022-11-09T09:41:05.589Z,12.5
2022-11-09T09:42:05.589Z,12.5
2022-11-09T09:43:05.638Z,12.5
2022-11-09T09:44:05.598Z,12.5
2022-11-09T09:45:05.610Z,12.5
2022-11-09T09:46:05.640Z,12.5
2022-11-09T09:47:05.647Z,12.6
2022-11-09T09:48:05.652Z,12.6
2022-11-09T09:49:05.690Z,12.6
2022-11-09T09:50:05.752Z,12.6
2022-11-09T09:51:05.672Z,12.6
2022-11-09T09:52:05.701Z,12.6
2022-11-09T09:53:23.030Z,12.6
2022-11-09T09:54:05.712Z,12.6
2022-11-09T09:55:05.679Z,12.6
2022-11-09T09:56:05.702Z,12.6
2022-11-09T09:57:05.699Z,12.6
2022-11-09T09:58:05.707Z,12.6
2022-11-09T09:59:05.715Z,12.6
2022-11-09T10:00:05.708Z,12.6
2022-11-09T10:01:05.718Z,12.6
2022-11-09T10:02:05.708Z,12.6
2022-11-09T10:03:05.855Z,12.6
2022-11-09T10:04:05.781Z,12.6
2022-11-09T10:05:05.710Z,12.7
2022-11-09T10:06:05.714Z,12.7
2022-11-09T10:07:05.739Z,12.7
2022-11-09T10:08:05.716Z,12.7
2022-11-09T10:09:05.712Z,12.7
2022-11-09T10:10:05.714Z,12.8
2022-11-09T10:11:05.750Z,12.8
2022-11-09T10:12:05.721Z,12.8
2022-11-09T10:13:05.701Z,12.8
2022-11-09T10:14:05.740Z,12.8
2022-11-09T10:15:05.751Z,12.9
2022-11-09T10:16:05.727Z,12.9
2022-11-09T10:17:05.719Z,12.9
2022-11-09T10:18:05.826Z,12.9
2022-11-09T10:19:05.719Z,12.9
2022-11-09T10:20:05.753Z,12.9
2022-11-09T10:21:05.742Z,13
2022-11-09T10:22:05.773Z,13
2022-11-09T10:23:05.761Z,13
2022-11-09T10:24:05.785Z,13
2022-11-09T10:25:32.479Z,13.1
2022-11-09T10:26:07.887Z,13.1
2022-11-09T10:27:05.778Z,13.1
2022-11-09T10:28:06.342Z,13.2
2022-11-09T10:29:21.277Z,13.2
2022-11-09T10:30:05.797Z,13.3
2022-11-09T10:31:05.828Z,13.3
2022-11-09T10:32:05.792Z,13.4
2022-11-09T10:33:05.785Z,13.5
2022-11-09T10:34:05.785Z,13.6
2022-11-09T10:35:05.792Z,13.7
2022-11-09T10:36:08.280Z,13.7
2022-11-09T10:37:05.798Z,13.8
2022-11-09T10:38:05.794Z,13.9
2022-11-09T10:39:05.801Z,14
2022-11-09T10:40:05.802Z,14
2022-11-09T10:41:05.797Z,14.1
2022-11-09T10:42:05.795Z,14.2
2022-11-09T10:43:05.794Z,14.3
2022-11-09T10:44:05.836Z,14.4
2022-11-09T10:45:05.831Z,14.4
2022-11-09T10:46:05.857Z,14.5
2022-11-09T10:47:05.883Z,14.5
2022-11-09T10:48:05.830Z,14.6
2022-11-09T10:49:05.812Z,14.6
2022-11-09T10:50:05.840Z,14.7
2022-11-09T10:51:05.831Z,14.7
2022-11-09T10:52:05.833Z,14.7
2022-11-09T10:53:05.864Z,14.8
2022-11-09T10:54:05.853Z,14.8
2022-11-09T10:55:05.853Z,14.8
2022-11-09T10:56:05.850Z,14.8
2022-11-09T10:57:06.876Z,14.8
2022-11-09T10:58:05.862Z,14.9
2022-11-09T10:59:05.874Z,14.9
2022-11-09T11:00:05.881Z,14.9
2022-11-09T11:01:06.013Z,14.9
2022-11-09T11:02:05.948Z,14.9
2022-11-09T11:03:05.880Z,15
2022-11-09T11:04:05.888Z,15
2022-11-09T11:05:05.861Z,15
2022-11-09T11:06:05.859Z,15
2022-11-09T11:07:05.934Z,15.1
2022-11-09T11:08:05.851Z,15.1
2022-11-09T11:09:05.904Z,15.1
2022-11-09T11:10:05.867Z,15.1
2022-11-09T11:11:19.605Z,15.2
2022-11-09T11:12:05.879Z,15.2
2022-11-09T11:13:05.881Z,15.2
2022-11-09T11:14:05.900Z,15.2
2022-11-09T11:15:05.881Z,15.2
2022-11-09T11:16:05.900Z,15.2
2022-11-09T11:17:05.899Z,15.2
2022-11-09T11:18:05.905Z,15.2
2022-11-09T11:19:05.937Z,15.3
2022-11-09T11:20:05.885Z,15.3
2022-11-09T11:21:05.898Z,15.3
2022-11-09T11:22:05.897Z,15.3
2022-11-09T11:23:05.914Z,15.3
2022-11-09T11:24:05.919Z,15.3
2022-11-09T11:25:05.909Z,15.4
2022-11-09T11:26:05.907Z,15.4
2022-11-09T11:27:10.295Z,15.4
2022-11-09T11:28:05.915Z,15.4
2022-11-09T11:29:05.918Z,15.4
2022-11-09T11:30:05.927Z,15.4
2022-11-09T11:31:05.919Z,15.5
2022-11-09T11:32:05.935Z,15.5
2022-11-09T11:33:05.930Z,15.4
2022-11-09T11:34:05.946Z,15.4
2022-11-09T11:35:06.013Z,15.4
2022-11-09T11:36:05.943Z,15.4
2022-11-09T11:37:05.962Z,15.3
2022-11-09T11:38:05.950Z,15.3
2022-11-09T11:39:05.970Z,15.3
2022-11-09T11:40:05.968Z,15.3
2022-11-09T11:41:05.975Z,15.2
2022-11-09T11:42:05.970Z,15.2
2022-11-09T11:43:05.968Z,15.2
2022-11-09T11:44:06.015Z,15.1
2022-11-09T11:45:33.929Z,15.1
2022-11-09T11:46:05.976Z,15.1
2022-11-09T11:47:06.044Z,15.1
2022-11-09T11:48:06.002Z,15.1
2022-11-09T11:49:05.992Z,15.2
2022-11-09T11:50:05.979Z,15.2
2022-11-09T11:51:05.998Z,15.2
2022-11-09T11:52:05.983Z,15.2
2022-11-09T11:53:05.969Z,15.2
2022-11-09T11:54:06.002Z,15.2
2022-11-09T11:55:05.983Z,15.2
2022-11-09T11:56:05.998Z,15.2
2022-11-09T11:57:05.985Z,15.2
2022-11-09T11:58:05.999Z,15.2
2022-11-09T11:59:06.020Z,15.2
2022-11-09T12:00:05.998Z,15.2
2022-11-09T12:01:06.037Z,15.2
2022-11-09T12:02:06.008Z,15.2
2022-11-09T12:03:06.051Z,15.2
2022-11-09T12:04:06.057Z,15.2
2022-11-09T12:05:06.024Z,15.2
2022-11-09T12:06:06.009Z,15.2
2022-11-09T12:07:06.084Z,15.2
2022-11-09T12:08:06.009Z,15.2
2022-11-09T12:09:06.030Z,15.2
2022-11-09T12:10:06.022Z,15.2
2022-11-09T12:11:06.021Z,15.2
2022-11-09T12:12:06.025Z,15.2
2022-11-09T12:13:06.006Z,15.2
2022-11-09T12:14:06.061Z,15.2
2022-11-09T12:15:06.038Z,15.2
2022-11-09T12:16:06.022Z,15.2
2022-11-09T12:17:06.058Z,15.2
2022-11-09T12:18:06.065Z,15.2
2022-11-09T12:19:06.063Z,15.2
2022-11-09T12:20:06.060Z,15.2
2022-11-09T12:21:06.039Z,15.2
2022-11-09T12:22:06.051Z,15.2
2022-11-09T12:23:06.092Z,15.2
2022-11-09T12:24:06.060Z,15.2
2022-11-09T12:25:06.040Z,15.2
2022-11-09T12:26:08.499Z,15.2
2022-11-09T12:27:25.977Z,15.2
2022-11-09T12:28:06.089Z,15.2
2022-11-09T12:29:06.108Z,15.2
2022-11-09T12:30:06.078Z,15.3
2022-11-09T12:31:06.084Z,15.3
2022-11-09T12:32:06.176Z,15.3
2022-11-09T12:33:06.108Z,15.3
2022-11-09T12:34:06.145Z,15.3
2022-11-09T12:35:06.101Z,15.4
2022-11-09T12:36:06.178Z,15.4
2022-11-09T12:37:06.099Z,15.4
2022-11-09T12:38:06.115Z,15.4
2022-11-09T12:39:06.164Z,15.4
2022-11-09T12:40:06.114Z,15.5
2022-11-09T12:41:06.130Z,15.5
2022-11-09T12:42:06.114Z,15.5
2022-11-09T12:43:06.143Z,15.5
2022-11-09T12:44:06.128Z,15.6
2022-11-09T12:45:06.111Z,15.6
2022-11-09T12:46:06.155Z,15.6
2022-11-09T12:47:06.114Z,15.7
2022-11-09T12:48:06.157Z,15.7
2022-11-09T12:49:06.174Z,15.7
2022-11-09T12:50:06.141Z,15.7
2022-11-09T12:51:06.155Z,15.7
2022-11-09T12:52:06.145Z,15.8
2022-11-09T12:53:06.150Z,15.8
2022-11-09T12:54:06.196Z,15.8
2022-11-09T12:55:06.188Z,15.8
2022-11-09T12:56:06.155Z,15.8
2022-11-09T12:57:06.139Z,15.8
2022-11-09T12:58:06.151Z,15.8
2022-11-09T12:59:06.185Z,15.8
2022-11-09T13:00:06.145Z,15.7
2022-11-09T13:01:06.156Z,15.7
2022-11-09T13:02:06.222Z,15.7
2022-11-09T13:03:06.181Z,15.7
2022-11-09T13:04:06.202Z,15.7
2022-11-09T13:05:06.204Z,15.7
2022-11-09T13:06:06.185Z,15.7
2022-11-09T13:07:06.309Z,15.7
2022-11-09T13:08:06.193Z,15.7
2022-11-09T13:09:06.214Z,15.7
2022-11-09T13:10:06.189Z,15.7
2022-11-09T13:11:06.328Z,15.7
2022-11-09T13:12:06.195Z,15.7
2022-11-09T13:13:06.200Z,15.7
2022-11-09T13:14:06.198Z,15.7
2022-11-09T13:15:06.212Z,15.7
2022-11-09T13:16:06.202Z,15.7
2022-11-09T13:17:06.229Z,15.6
2022-11-09T13:18:06.223Z,15.6
2022-11-09T13:19:06.254Z,15.6
2022-11-09T13:20:06.222Z,15.6
2022-11-09T13:21:06.260Z,15.6
2022-11-09T13:22:06.237Z,15.6
2022-11-09T13:23:06.244Z,15.6
2022-11-09T13:24:09.213Z,15.5
2022-11-09T13:25:06.231Z,15.5
2022-11-09T13:26:06.232Z,15.5
2022-11-09T13:27:06.318Z,15.5
2022-11-09T13:28:06.295Z,15.5
2022-11-09T13:29:06.293Z,15.5
2022-11-09T13:30:06.288Z,15.5
2022-11-09T13:31:06.267Z,15.5